Time;durP1;ratioP1;P1;durP2;ratioP2;P2;SDS_P1;SDS_P2;PMS_P1;PMS_P2;Temp;Humidity;BMP_temperature;BMP_pressure;BME280_temperature;BME280_humidity;BME280_pressure;Samples;Min_cycle;Max_cycle;Signal;HPM_P1;HPM_P2
2021/10/27 00:02:53;;;;;;;14.70;5.93;;;;;13.50;101799.00;;;;9859232;29;20261;-78
2021/10/27 00:07:56;;;;;;;12.77;6.00;;;;;13.50;101796.00;;;;9829086;29;20279;-78
2021/10/27 00:12:57;;;;;;;12.97;5.87;;;;;13.50;101789.00;;;;9828898;29;20303;-77
2021/10/27 00:18:02;;;;;;;10.37;5.33;;;;;13.60;101779.00;;;;9829604;29;20279;-77
2021/10/27 00:23:04;;;;;;;13.60;5.83;;;;;13.60;101795.00;;;;9812874;29;20274;-78
2021/10/27 00:28:06;;;;;;;11.47;6.20;;;;;13.50;101792.00;;;;9828720;29;20216;-77
2021/10/27 00:33:08;;;;;;;12.10;6.50;;;;;13.50;101794.00;;;;9843452;29;20216;-78
2021/10/27 00:38:10;;;;;;;15.07;8.13;;;;;13.50;101797.00;;;;9823615;29;20255;-77
2021/10/27 00:43:14;;;;;;;11.73;7.00;;;;;13.50;101792.00;;;;9842771;29;20240;-77
2021/10/27 00:48:16;;;;;;;14.10;6.23;;;;;13.50;101788.00;;;;9822873;29;20312;-78
2021/10/27 00:53:18;;;;;;;13.03;7.07;;;;;13.40;101792.00;;;;9820040;29;20212;-78
2021/10/27 00:58:20;;;;;;;14.20;7.20;;;;;13.40;101792.00;;;;9835522;29;20224;-78
2021/10/27 01:03:22;;;;;;;15.77;6.50;;;;;13.40;101780.00;;;;9813212;29;20220;-77
2021/10/27 01:08:24;;;;;;;14.67;6.30;;;;;13.40;101789.00;;;;9831055;29;20208;-77
2021/10/27 01:13:27;;;;;;;15.10;6.33;;;;;13.50;101785.00;;;;9832195;29;20247;-77
2021/10/27 01:18:29;;;;;;;10.47;5.53;;;;;13.50;101779.00;;;;9841669;29;20253;-77
2021/10/27 01:23:30;;;;;;;11.50;6.00;;;;;13.50;101792.00;;;;9834801;29;20279;-77
2021/10/27 01:28:40;;;;;;;14.53;6.57;;;;;13.40;101769.00;;;;9832586;29;20213;-78
2021/10/27 01:33:44;;;;;;;11.10;5.47;;;;;13.40;101765.00;;;;9818709;30;20209;-77
2021/10/27 01:38:48;;;;;;;11.13;5.80;;;;;13.40;101768.00;;;;9834470;29;20214;-77
2021/10/27 01:43:53;;;;;;;13.97;6.10;;;;;13.40;101756.00;;;;9829295;30;20744;-77
2021/10/27 01:48:55;;;;;;;13.27;6.43;;;;;13.20;101751.00;;;;9847718;29;20796;-77
2021/10/27 01:53:58;;;;;;;14.77;5.63;;;;;13.00;101751.00;;;;9833025;29;20685;-77
2021/10/27 01:59:00;;;;;;;11.63;6.97;;;;;12.80;101749.00;;;;9835644;29;20235;-77
2021/10/27 02:04:02;;;;;;;15.07;7.30;;;;;12.70;101737.00;;;;9817695;29;20233;-77
2021/10/27 02:09:04;;;;;;;12.73;6.67;;;;;12.50;101734.00;;;;9816251;29;20240;-78
2021/10/27 02:14:06;;;;;;;11.77;6.00;;;;;12.40;101733.00;;;;9846297;29;20239;-77
2021/10/27 02:19:09;;;;;;;12.33;6.50;;;;;12.30;101725.00;;;;9818737;30;20212;-77
2021/10/27 02:24:11;;;;;;;14.93;7.87;;;;;12.30;101731.00;;;;9825095;29;20212;-77
2021/10/27 02:29:13;;;;;;;15.10;7.10;;;;;12.40;101734.00;;;;9831476;29;20223;-77
2021/10/27 02:34:15;;;;;;;11.67;6.27;;;;;12.50;101731.00;;;;9816144;29;20227;-77
2021/10/27 02:39:17;;;;;;;15.50;6.67;;;;;12.50;101736.00;;;;9834416;29;20208;-78
2021/10/27 02:44:19;;;;;;;11.70;6.27;;;;;12.60;101734.00;;;;9860913;29;20266;-77
2021/10/27 02:49:21;;;;;;;12.10;5.97;;;;;12.70;101750.00;;;;9829971;30;20455;-77
2021/10/27 02:54:23;;;;;;;13.87;5.93;;;;;12.80;101749.00;;;;9856054;29;20263;-77
2021/10/27 02:59:25;;;;;;;9.77;5.60;;;;;12.90;101754.00;;;;9818516;29;20201;-78
2021/10/27 03:04:27;;;;;;;10.83;6.37;;;;;12.90;101762.00;;;;9833664;29;20305;-78
2021/10/27 03:09:29;;;;;;;15.30;5.80;;;;;12.90;101759.00;;;;9813435;29;20226;-78
2021/10/27 03:14:31;;;;;;;11.57;5.73;;;;;13.00;101768.00;;;;9835075;29;20224;-77
2021/10/27 03:19:33;;;;;;;10.83;5.50;;;;;13.00;101764.00;;;;9841890;29;20217;-77
2021/10/27 03:24:35;;;;;;;16.57;6.10;;;;;13.10;101762.00;;;;9828876;29;20274;-77
2021/10/27 03:29:37;;;;;;;12.60;5.50;;;;;13.10;101760.00;;;;9836752;29;20208;-77
2021/10/27 03:34:39;;;;;;;12.10;5.13;;;;;13.20;101770.00;;;;9830807;29;20231;-77
2021/10/27 03:39:41;;;;;;;11.97;5.60;;;;;13.20;101767.00;;;;9826872;30;20217;-77
2021/10/27 03:44:43;;;;;;;10.47;5.00;;;;;13.20;101756.00;;;;9809930;29;20212;-77
2021/10/27 03:49:45;;;;;;;14.67;5.47;;;;;13.20;101750.00;;;;9833246;30;20975;-77
2021/10/27 03:54:47;;;;;;;7.67;5.30;;;;;13.20;101758.00;;;;9844652;29;20224;-77
2021/10/27 03:59:49;;;;;;;10.53;5.40;;;;;13.20;101760.00;;;;9830346;29;20743;-77
2021/10/27 04:04:51;;;;;;;12.40;5.27;;;;;13.20;101748.00;;;;9829376;29;20243;-77
2021/10/27 04:09:53;;;;;;;9.37;5.50;;;;;13.20;101757.00;;;;9837572;29;20240;-77
2021/10/27 04:14:54;;;;;;;14.97;5.60;;;;;13.20;101754.00;;;;9821892;29;20252;-78
2021/10/27 04:19:57;;;;;;;12.23;6.30;;;;;13.20;101759.00;;;;9844147;29;20734;-77
2021/10/27 04:24:59;;;;;;;11.00;5.10;;;;;13.20;101757.00;;;;9820754;29;20357;-77
2021/10/27 04:30:02;;;;;;;13.43;6.77;;;;;13.20;101760.00;;;;9831547;29;20247;-78
2021/10/27 04:35:05;;;;;;;12.20;6.33;;;;;13.20;101768.00;;;;9836779;29;20235;-77
2021/10/27 04:40:09;;;;;;;8.43;5.37;;;;;13.20;101762.00;;;;9799008;30;20669;-77
2021/10/27 04:45:13;;;;;;;14.40;5.87;;;;;13.20;101752.00;;;;9805858;30;20736;-77
2021/10/27 04:50:15;;;;;;;9.97;5.53;;;;;13.20;101754.00;;;;9831211;29;20285;-77
2021/10/27 04:55:16;;;;;;;11.67;6.23;;;;;13.20;101755.00;;;;9799187;30;20236;-78
2021/10/27 05:00:18;;;;;;;11.60;5.90;;;;;13.20;101759.00;;;;9842219;29;20278;-77
2021/10/27 05:05:20;;;;;;;10.90;5.73;;;;;13.10;101751.00;;;;9815251;30;20231;-77
2021/10/27 05:10:22;;;;;;;10.80;5.70;;;;;13.10;101751.00;;;;9860816;29;20727;-77
2021/10/27 05:15:24;;;;;;;14.67;6.43;;;;;13.10;101760.00;;;;9799399;30;20799;-77
2021/10/27 05:20:26;;;;;;;16.40;6.53;;;;;13.10;101760.00;;;;9814640;29;20600;-77
2021/10/27 05:25:28;;;;;;;12.40;6.17;;;;;13.10;101754.00;;;;9835273;29;20624;-76
2021/10/27 05:30:30;;;;;;;11.73;6.67;;;;;13.10;101752.00;;;;9861567;29;20301;-77
2021/10/27 05:35:32;;;;;;;22.57;8.03;;;;;13.10;101759.00;;;;9828123;29;20251;-76
2021/10/27 05:40:34;;;;;;;12.93;7.10;;;;;13.10;101756.00;;;;9820901;29;20212;-76
2021/10/27 05:45:37;;;;;;;15.33;7.47;;;;;13.10;101752.00;;;;9847785;29;20228;-77
2021/10/27 05:50:45;;;;;;;14.93;7.00;;;;;13.10;101758.00;;;;9824715;30;20216;-77
2021/10/27 05:55:47;;;;;;;6.50;5.60;;;;;13.10;101751.00;;;;9852040;29;20947;-78
2021/10/27 06:00:50;;;;;;;13.23;7.27;;;;;13.00;101740.00;;;;9816783;30;20204;-77
2021/10/27 06:05:52;;;;;;;13.90;6.77;;;;;13.00;101738.00;;;;9804008;30;20211;-77
2021/10/27 06:10:58;;;;;;;13.70;7.30;;;;;12.90;101732.00;;;;9830079;29;20220;-78
2021/10/27 06:16:00;;;;;;;14.43;7.10;;;;;12.80;101740.00;;;;9815136;29;20317;-78
2021/10/27 06:21:02;;;;;;;13.23;7.40;;;;;12.50;101744.00;;;;9833965;29;20208;-78
2021/10/27 06:26:04;;;;;;;14.17;7.23;;;;;12.30;101735.00;;;;9848696;29;20208;-79
2021/10/27 06:31:10;;;;;;;12.93;7.47;;;;;12.20;101749.00;;;;9812038;30;20220;-78
2021/10/27 06:46:46;;;;;;;14.63;9.13;;;;;11.90;101760.00;;;;9840357;29;20279;-78
2021/10/27 06:51:48;;;;;;;15.03;8.47;;;;;11.90;101771.00;;;;9862005;29;20240;-77
2021/10/27 06:56:51;;;;;;;15.93;9.03;;;;;12.00;101774.00;;;;9832735;29;20323;-78
2021/10/27 07:17:54;;;;;;;18.43;9.40;;;;;12.80;101814.00;;;;9845098;29;20228;-77
2021/10/27 07:23:00;;;;;;;16.73;11.20;;;;;13.00;101830.00;;;;9805257;29;20217;-77
2021/10/27 07:28:03;;;;;;;17.20;9.93;;;;;13.20;101843.00;;;;9819193;29;20212;-77
2021/10/27 07:33:06;;;;;;;18.23;11.33;;;;;13.30;101859.00;;;;9820385;29;20627;-77
2021/10/27 07:43:31;;;;;;;18.50;12.03;;;;;13.70;101876.00;;;;9835051;29;20273;-77
2021/10/27 07:48:33;;;;;;;21.00;12.50;;;;;13.80;101860.00;;;;9824461;29;20227;-77
2021/10/27 07:53:35;;;;;;;22.73;12.17;;;;;13.90;101864.00;;;;9852665;29;20270;-76
2021/10/27 07:58:38;;;;;;;20.00;12.80;;;;;13.90;101864.00;;;;9815753;29;20244;-77
2021/10/27 08:03:41;;;;;;;17.90;12.37;;;;;14.00;101860.00;;;;9853783;29;20295;-78
2021/10/27 08:08:43;;;;;;;23.00;13.30;;;;;14.10;101877.00;;;;9849164;29;20267;-77
2021/10/27 08:13:46;;;;;;;21.57;13.10;;;;;14.10;101872.00;;;;9823968;30;20287;-77
2021/10/27 08:18:50;;;;;;;21.50;13.10;;;;;14.20;101863.00;;;;9834911;30;20621;-77
2021/10/27 08:23:53;;;;;;;15.70;11.90;;;;;14.30;101874.00;;;;9831806;29;20298;-77
2021/10/27 08:28:57;;;;;;;17.07;11.77;;;;;14.30;101874.00;;;;9823303;29;20217;-77
2021/10/27 08:34:05;;;;;;;14.77;11.17;;;;;14.40;101880.00;;;;9842618;29;20244;-77
2021/10/27 08:39:08;;;;;;;20.23;11.50;;;;;14.50;101877.00;;;;9837168;29;20318;-76
2021/10/27 08:44:19;;;;;;;19.10;11.07;;;;;14.70;101880.00;;;;9838111;29;20296;-77
2021/10/27 08:49:25;;;;;;;15.57;11.30;;;;;14.70;101892.00;;;;9802285;30;20822;-77
2021/10/27 08:54:28;;;;;;;16.97;10.87;;;;;14.80;101887.00;;;;9830338;29;20208;-77
2021/10/27 08:59:43;;;;;;;17.60;11.47;;;;;14.90;101884.00;;;;9810618;29;20323;-77
2021/10/27 09:10:19;;;;;;;17.13;11.00;;;;;15.20;101891.00;;;;9865170;29;20678;-77
2021/10/27 09:36:57;;;;;;;17.25;10.27;;;;;15.60;101886.00;;;;9835809;29;20307;-78
2021/10/27 10:08:58;;;;;;;14.43;8.00;;;;;15.90;101880.00;;;;9831717;29;20220;-77
2021/10/27 10:14:05;;;;;;;13.50;7.68;;;;;15.80;101874.00;;;;9848889;29;20713;-77
2021/10/27 10:19:13;;;;;;;10.45;7.22;;;;;15.70;101878.00;;;;9848242;29;20914;-77
2021/10/27 10:24:25;;;;;;;10.90;6.88;;;;;15.60;101859.00;;;;9829684;29;20547;-77
2021/10/27 10:29:42;;;;;;;9.10;5.95;;;;;16.30;101862.00;;;;9833230;29;21040;-77
2021/10/27 10:34:50;;;;;;;10.38;5.90;;;;;16.30;101857.00;;;;9831102;29;20212;-77
2021/10/27 10:39:54;;;;;;;9.82;5.20;;;;;16.60;101847.00;;;;9825719;29;20311;-77
2021/10/27 10:55:35;;;;;;;6.45;4.63;;;;;17.20;101861.00;;;;9832626;29;20260;-77
2021/10/27 11:01:55;;;;;;;5.57;3.08;;;;;19.10;101850.00;;;;9841928;29;20212;-78
2021/10/27 11:23:21;;;;;;;6.97;2.92;;;;;19.30;101839.00;;;;9841166;29;20238;-77
2021/10/27 11:49:55;;;;;;;4.38;2.03;;;;;20.00;101808.00;;;;9820585;29;20295;-78
2021/10/27 11:54:57;;;;;;;6.00;2.50;;;;;20.20;101793.00;;;;9823490;29;20209;-78
2021/10/27 12:00:04;;;;;;;6.68;1.58;;;;;20.20;101791.00;;;;9822383;29;20262;-77
2021/10/27 12:05:27;;;;;;;4.32;1.73;;;;;20.10;101786.00;;;;9837203;29;20246;-78
2021/10/27 12:10:43;;;;;;;4.05;1.60;;;;;20.30;101784.00;;;;9827374;29;20213;-78
2021/10/27 12:15:57;;;;;;;2.15;1.48;;;;;20.10;101784.00;;;;9826755;29;20227;-77
2021/10/27 12:20:59;;;;;;;4.07;1.92;;;;;20.00;101780.00;;;;9859643;29;20212;-77
2021/10/27 12:26:15;;;;;;;7.45;2.28;;;;;20.10;101777.00;;;;9837184;30;20286;-77
2021/10/27 12:31:22;;;;;;;5.50;2.50;;;;;20.00;101778.00;;;;9817069;29;20300;-78
2021/10/27 12:41:28;;;;;;;6.95;2.33;;;;;19.60;101758.00;;;;9841867;29;20627;-77
2021/10/27 12:46:30;;;;;;;4.72;2.28;;;;;19.50;101762.00;;;;9845681;29;20773;-77
2021/10/27 12:51:32;;;;;;;4.47;2.60;;;;;19.10;101759.00;;;;9849549;29;20217;-77
2021/10/27 12:56:43;;;;;;;4.50;2.03;;;;;19.20;101756.00;;;;9799314;30;20236;-77
2021/10/27 13:01:55;;;;;;;5.55;2.00;;;;;19.10;101754.00;;;;9837170;30;20213;-77
2021/10/27 13:07:03;;;;;;;6.10;2.60;;;;;18.70;101740.00;;;;9821610;29;20295;-77
2021/10/27 13:12:21;;;;;;;4.45;2.38;;;;;18.60;101743.00;;;;9849828;29;20216;-77
2021/10/27 13:33:09;;;;;;;5.35;2.67;;;;;18.00;101726.00;;;;9847620;29;20265;-77
2021/10/27 13:38:12;;;;;;;4.50;2.83;;;;;17.90;101724.00;;;;9835414;29;20228;-77
2021/10/27 13:43:39;;;;;;;4.13;2.80;;;;;17.70;101721.00;;;;9834674;30;20258;-77
2021/10/27 13:49:03;;;;;;;6.40;2.53;;;;;17.60;101726.00;;;;9873613;29;20270;-78
2021/10/27 14:10:11;;;;;;;7.45;2.55;;;;;17.90;101714.00;;;;9839807;29;20303;-77
2021/10/27 15:24:41;;;;;;;6.85;3.00;;;;;15.90;101675.00;;;;9824331;29;20204;-76
2021/10/27 15:50:44;;;;;;;6.03;4.07;;;;;14.90;101665.00;;;;9826704;30;20245;-77
2021/10/27 15:55:46;;;;;;;6.23;4.17;;;;;14.70;101664.00;;;;9813654;29;20216;-77
2021/10/27 16:00:48;;;;;;;9.83;3.90;;;;;14.50;101654.00;;;;9851799;29;20216;-76
2021/10/27 16:05:52;;;;;;;4.90;4.40;;;;;14.40;101661.00;;;;9813267;29;20240;-77
2021/10/27 16:10:54;;;;;;;8.33;3.87;;;;;14.20;101656.00;;;;9827621;29;20239;-77
2021/10/27 16:16:00;;;;;;;9.97;4.30;;;;;14.00;101652.00;;;;9843731;29;20485;-76
2021/10/27 16:21:03;;;;;;;7.57;4.13;;;;;13.80;101654.00;;;;9823961;29;20291;-77
2021/10/27 16:26:05;;;;;;;9.90;4.20;;;;;13.70;101657.00;;;;9803628;29;20247;-77
2021/10/27 16:31:08;;;;;;;7.50;4.43;;;;;13.50;101658.00;;;;9827061;29;20212;-76
2021/10/27 16:36:11;;;;;;;5.63;3.80;;;;;13.40;101660.00;;;;9801633;30;20291;-76
2021/10/27 16:41:14;;;;;;;7.30;4.87;;;;;13.30;101656.00;;;;9853843;29;20740;-76
2021/10/27 16:46:16;;;;;;;8.00;4.10;;;;;13.20;101646.00;;;;9823629;29;20232;-76
2021/10/27 16:51:18;;;;;;;8.97;4.17;;;;;13.10;101645.00;;;;9853561;29;20685;-77
2021/10/27 16:56:20;;;;;;;11.23;4.83;;;;;13.00;101645.00;;;;9826061;29;20895;-76
2021/10/27 17:01:23;;;;;;;7.43;4.30;;;;;13.00;101648.00;;;;9856985;29;20279;-76
2021/10/27 17:06:26;;;;;;;7.70;4.53;;;;;12.80;101641.00;;;;9840182;29;20197;-76
2021/10/27 17:11:27;;;;;;;12.50;5.07;;;;;12.80;101642.00;;;;9830997;29;20217;-76
2021/10/27 17:16:32;;;;;;;8.23;4.57;;;;;12.70;101643.00;;;;9829147;30;20294;-76
2021/10/27 17:21:35;;;;;;;8.60;4.40;;;;;12.60;101647.00;;;;9878580;29;20208;-76
2021/10/27 17:26:37;;;;;;;11.80;5.13;;;;;12.50;101645.00;;;;9850833;29;20216;-76
2021/10/27 17:31:40;;;;;;;9.57;4.70;;;;;12.40;101641.00;;;;9832475;30;20240;-77
2021/10/27 17:36:42;;;;;;;13.43;4.70;;;;;12.30;101632.00;;;;9835487;29;20715;-76
2021/10/27 17:41:47;;;;;;;12.40;6.67;;;;;12.20;101632.00;;;;9823519;30;20979;-76
2021/10/27 17:46:54;;;;;;;9.27;5.50;;;;;12.20;101630.00;;;;9820857;29;20254;-76
2021/10/27 17:52:09;;;;;;;12.30;5.80;;;;;12.10;101642.00;;;;9813484;30;20745;-76
2021/10/27 18:02:37;;;;;;;8.60;5.87;;;;;12.00;101617.00;;;;9879061;29;20216;-76
2021/10/27 18:07:42;;;;;;;10.37;6.63;;;;;12.00;101621.00;;;;9836068;30;20296;-76
2021/10/27 18:12:44;;;;;;;7.73;6.10;;;;;12.00;101622.00;;;;9812475;30;20205;-76
2021/10/27 18:17:46;;;;;;;12.43;7.77;;;;;12.00;101623.00;;;;9844030;29;20271;-75
2021/10/27 18:23:03;;;;;;;12.73;8.83;;;;;11.90;101614.00;;;;9849601;29;20216;-77
2021/10/27 18:38:49;;;;;;;12.53;8.90;;;;;11.70;101606.00;;;;9803579;30;20221;-76
2021/10/27 18:43:53;;;;;;;14.37;9.40;;;;;11.60;101596.00;;;;9797818;30;20213;-76
2021/10/27 18:48:55;;;;;;;12.07;8.23;;;;;11.50;101596.00;;;;9814098;30;20225;-76
2021/10/27 19:19:59;;;;;;;18.27;9.93;;;;;11.30;101590.00;;;;9831731;29;20247;-76
2021/10/27 19:25:08;;;;;;;14.60;10.83;;;;;11.30;101589.00;;;;9808503;30;20612;-76
2021/10/27 19:30:26;;;;;;;14.77;9.80;;;;;11.20;101584.00;;;;9807249;29;20222;-76
2021/10/27 20:07:42;;;;;;;16.63;10.60;;;;;11.10;101592.00;;;;9845474;29;20215;-76
2021/10/27 20:55:06;;;;;;;15.47;9.13;;;;;10.60;101596.00;;;;9816626;29;20612;-76
2021/10/27 21:00:18;;;;;;;13.30;8.77;;;;;10.60;101568.00;;;;9845692;29;20216;-76
2021/10/27 21:16:00;;;;;;;15.63;9.10;;;;;10.60;101580.00;;;;9840610;29;20273;-76
2021/10/27 21:21:03;;;;;;;19.77;8.80;;;;;10.50;101589.00;;;;9839443;30;20311;-76
2021/10/27 21:26:06;;;;;;;16.33;9.83;;;;;10.60;101588.00;;;;9836928;29;20205;-77
2021/10/27 21:31:26;;;;;;;16.10;10.43;;;;;10.60;101575.00;;;;9852736;29;20270;-76
2021/10/27 21:47:12;;;;;;;22.33;14.93;;;;;10.40;101580.00;;;;9887027;29;20230;-77
2021/10/27 21:52:15;;;;;;;26.07;15.93;;;;;10.30;101577.00;;;;9828130;30;20736;-77
2021/10/27 21:57:18;;;;;;;24.60;15.97;;;;;10.20;101576.00;;;;9813264;29;20307;-76
2021/10/27 22:02:21;;;;;;;28.43;17.10;;;;;10.20;101569.00;;;;9849302;29;20208;-77
2021/10/27 22:07:23;;;;;;;25.00;16.20;;;;;10.10;101565.00;;;;9833000;29;20231;-75
2021/10/27 22:12:26;;;;;;;23.50;13.67;;;;;10.10;101557.00;;;;9849496;29;20212;-76
2021/10/27 22:17:27;;;;;;;17.10;11.53;;;;;10.10;101557.00;;;;9833707;29;20323;-76
2021/10/27 22:22:30;;;;;;;16.93;11.00;;;;;10.10;101558.00;;;;9833685;29;20262;-76
2021/10/27 22:27:32;;;;;;;15.80;11.17;;;;;10.10;101540.00;;;;9834006;29;20212;-77
2021/10/27 22:32:35;;;;;;;21.50;12.43;;;;;10.00;101536.00;;;;9828925;29;20211;-77
2021/10/27 22:37:37;;;;;;;18.83;10.63;;;;;10.00;101539.00;;;;9848529;29;20342;-76
2021/10/27 22:42:39;;;;;;;20.90;12.17;;;;;10.00;101528.00;;;;9833678;29;20269;-76
2021/10/27 22:47:41;;;;;;;20.37;12.10;;;;;9.90;101523.00;;;;9815451;30;20275;-76
2021/10/27 22:52:43;;;;;;;19.43;10.37;;;;;9.90;101524.00;;;;9828193;30;20292;-76
2021/10/27 22:57:45;;;;;;;19.40;9.73;;;;;9.90;101521.00;;;;9847764;29;20277;-76
2021/10/27 23:03:07;;;;;;;20.90;10.53;;;;;9.90;101510.00;;;;9847621;29;20673;-76
2021/10/27 23:08:26;;;;;;;16.03;9.20;;;;;9.80;101514.00;;;;9832896;29;20266;-76
2021/10/27 23:40:03;;;;;;;20.20;11.47;;;;;9.80;101492.00;;;;9810737;30;20235;-76
